createdAt,value
2022-09-10T00:01:00.447Z,17.10
2022-09-10T00:03:27.495Z,17.10
2022-09-10T00:05:54.168Z,17.10
2022-09-10T00:08:21.756Z,17.50
2022-09-10T00:10:51.725Z,17.30
2022-09-10T00:13:21.340Z,17.10
2022-09-10T00:15:50.957Z,17.20
2022-09-10T00:18:20.556Z,17.40
2022-09-10T00:20:52.736Z,17.40
2022-09-10T00:23:26.398Z,17.00
2022-09-10T00:25:54.331Z,16.90
2022-09-10T00:28:22.862Z,17.00
2022-09-10T00:30:52.754Z,17.00
2022-09-10T00:33:20.257Z,17.20
2022-09-10T00:35:47.732Z,17.00
2022-09-10T00:38:17.297Z,17.00
2022-09-10T00:40:44.227Z,16.90
2022-09-10T00:43:20.354Z,17.00
2022-09-10T00:45:54.655Z,16.90
2022-09-10T00:48:29.642Z,16.80
2022-09-10T00:51:00.313Z,16.80
2022-09-10T00:53:29.005Z,16.70
2022-09-10T00:55:59.879Z,17.20
2022-09-10T00:58:28.635Z,16.90
2022-09-10T01:01:00.099Z,17.20
2022-09-10T01:03:30.100Z,16.90
2022-09-10T01:05:57.359Z,17.00
2022-09-10T01:08:24.504Z,17.00
2022-09-10T01:11:20.194Z,16.80
2022-09-10T01:14:25.497Z,16.60
2022-09-10T01:17:26.170Z,16.90
2022-09-10T01:20:11.720Z,16.80
2022-09-10T01:22:50.863Z,17.10
2022-09-10T01:25:35.173Z,17.30
2022-09-10T01:28:09.735Z,17.00
2022-09-10T01:30:44.648Z,16.90
2022-09-10T01:33:34.156Z,16.80
2022-09-10T01:36:06.947Z,16.90
2022-09-10T01:38:36.905Z,16.90
2022-09-10T01:41:04.398Z,16.90
2022-09-10T01:43:31.105Z,16.80
2022-09-10T01:46:32.497Z,17.00
2022-09-10T01:49:07.791Z,16.80
2022-09-10T01:51:46.662Z,16.70
2022-09-10T01:54:29.170Z,16.70
2022-09-10T01:57:27.831Z,16.90
2022-09-10T02:00:04.443Z,16.60
2022-09-10T02:02:41.897Z,16.70
2022-09-10T02:05:10.984Z,16.70
2022-09-10T02:07:38.817Z,16.80
2022-09-10T02:10:07.866Z,16.90
2022-09-10T02:12:35.363Z,16.60
2022-09-10T02:15:02.562Z,16.70
2022-09-10T02:17:36.821Z,16.60
2022-09-10T02:20:07.056Z,16.50
2022-09-10T02:22:36.349Z,16.90
2022-09-10T02:25:06.602Z,17.00
2022-09-10T02:27:33.346Z,16.90
2022-09-10T02:30:00.011Z,16.60
2022-09-10T02:32:26.806Z,16.80
2022-09-10T02:34:53.462Z,16.80
2022-09-10T02:37:20.230Z,16.80
2022-09-10T02:39:47.020Z,16.80
2022-09-10T02:42:16.928Z,16.70
2022-09-10T02:44:44.704Z,16.50
2022-09-10T02:47:11.594Z,16.60
2022-09-10T02:49:38.253Z,17.10
2022-09-10T02:52:05.097Z,16.70
2022-09-10T02:54:31.745Z,17.00
2022-09-10T02:56:58.390Z,16.90
2022-09-10T02:59:25.282Z,16.80
2022-09-10T03:01:54.713Z,16.90
2022-09-10T03:04:21.387Z,16.70
2022-09-10T03:06:49.461Z,16.70
2022-09-10T03:09:17.128Z,16.50
2022-09-10T03:11:43.775Z,16.70
2022-09-10T03:14:11.941Z,16.70
2022-09-10T03:16:40.156Z,16.80
2022-09-10T03:19:06.868Z,16.60
2022-09-10T03:21:34.390Z,16.60
2022-09-10T03:24:01.778Z,16.80
2022-09-10T03:26:30.464Z,16.60
2022-09-10T03:28:57.188Z,16.50
2022-09-10T03:31:23.981Z,16.60
2022-09-10T03:33:51.175Z,16.80
2022-09-10T03:36:18.753Z,16.90
2022-09-10T03:38:45.489Z,16.60
2022-09-10T03:41:12.198Z,16.70
2022-09-10T03:43:39.037Z,16.80
2022-09-10T03:46:05.886Z,16.50
2022-09-10T03:48:32.567Z,16.70
2022-09-10T03:50:59.556Z,16.70
2022-09-10T03:53:26.371Z,16.70
2022-09-10T03:55:55.711Z,16.90
2022-09-10T03:58:22.479Z,16.80
2022-09-10T04:00:49.208Z,16.90
2022-09-10T04:03:17.064Z,16.80
2022-09-10T04:05:44.150Z,16.80
2022-09-10T04:08:14.758Z,16.70
2022-09-10T04:10:42.683Z,16.60
2022-09-10T04:13:09.456Z,16.80
2022-09-10T04:15:40.066Z,16.70
2022-09-10T04:18:07.481Z,17.00
2022-09-10T04:20:35.274Z,17.00
2022-09-10T04:23:02.961Z,17.00
2022-09-10T04:25:29.634Z,16.80
2022-09-10T04:27:56.482Z,16.90
2022-09-10T04:30:23.308Z,16.90
2022-09-10T04:32:50.362Z,17.00
2022-09-10T04:35:17.172Z,17.20
2022-09-10T04:37:43.924Z,17.10
2022-09-10T04:40:11.112Z,17.90
2022-09-10T04:42:38.529Z,18.20
2022-09-10T04:45:06.439Z,17.50
2022-09-10T04:47:34.099Z,17.90
2022-09-10T04:50:01.171Z,17.90
2022-09-10T04:52:27.938Z,18.40
2022-09-10T04:54:54.649Z,17.90
2022-09-10T04:57:22.140Z,17.60
2022-09-10T04:59:48.851Z,17.50
2022-09-10T05:02:15.554Z,18.00
2022-09-10T05:04:42.246Z,18.00
2022-09-10T05:07:08.903Z,18.30
2022-09-10T05:09:35.940Z,18.10
2022-09-10T05:12:03.371Z,18.10
2022-09-10T05:14:30.346Z,18.30
2022-09-10T05:16:57.303Z,18.50
2022-09-10T05:19:23.971Z,18.40
2022-09-10T05:21:50.870Z,18.40
2022-09-10T05:24:17.571Z,18.40
2022-09-10T05:26:44.964Z,18.30
2022-09-10T05:29:12.116Z,18.50
2022-09-10T05:31:38.811Z,18.60
2022-09-10T05:34:05.537Z,18.80
2022-09-10T05:36:32.400Z,18.80
2022-09-10T05:39:00.398Z,18.80
2022-09-10T05:41:28.187Z,18.60
2022-09-10T05:43:55.141Z,18.90
2022-09-10T05:46:22.547Z,18.90
2022-09-10T05:48:49.267Z,18.70
2022-09-10T05:51:16.881Z,18.60
2022-09-10T05:53:43.593Z,18.70
2022-09-10T05:56:10.345Z,18.50
2022-09-10T05:58:37.206Z,18.80
2022-09-10T06:01:04.035Z,18.70
2022-09-10T06:03:30.720Z,18.80
2022-09-10T06:05:57.356Z,18.70
2022-09-10T06:08:24.024Z,18.60
2022-09-10T06:11:05.069Z,18.60
2022-09-10T06:13:33.456Z,18.60
2022-09-10T06:16:01.107Z,18.40
2022-09-10T06:18:28.475Z,18.40
2022-09-10T06:21:07.193Z,18.40
2022-09-10T06:23:33.976Z,18.40
2022-09-10T06:26:05.353Z,18.30
2022-09-10T06:28:33.014Z,18.20
2022-09-10T06:31:00.609Z,18.10
2022-09-10T06:33:27.432Z,18.30
2022-09-10T06:35:59.962Z,18.20
2022-09-10T06:38:32.349Z,18.00
2022-09-10T06:41:01.502Z,18.20
2022-09-10T06:43:33.085Z,18.10
2022-09-10T06:45:59.785Z,18.10
2022-09-10T06:48:48.027Z,18.50
2022-09-10T06:51:16.199Z,18.30
2022-09-10T06:53:44.091Z,18.40
2022-09-10T06:56:12.529Z,18.40
2022-09-10T06:58:40.130Z,18.40
2022-09-10T07:01:12.270Z,18.20
2022-09-10T07:03:38.945Z,18.20
2022-09-10T07:06:11.285Z,18.20
2022-09-10T07:08:39.677Z,17.60
2022-09-10T07:11:12.784Z,17.40
2022-09-10T07:13:40.521Z,17.40
2022-09-10T07:16:07.711Z,17.50
2022-09-10T07:18:34.774Z,17.50
2022-09-10T07:21:12.674Z,17.70
2022-09-10T07:23:40.298Z,17.80
2022-09-10T07:26:12.134Z,17.70
2022-09-10T07:28:40.284Z,17.60
2022-09-10T07:31:23.944Z,17.70
2022-09-10T07:33:50.989Z,17.80
2022-09-10T07:36:18.280Z,17.80
2022-09-10T07:38:45.150Z,17.70
2022-09-10T07:41:13.953Z,17.80
2022-09-10T07:43:42.372Z,17.90
2022-09-10T07:46:12.864Z,17.90
2022-09-10T07:48:41.441Z,17.80
2022-09-10T07:51:09.215Z,17.70
2022-09-10T07:53:38.043Z,17.70
2022-09-10T07:56:07.029Z,17.70
2022-09-10T07:58:35.964Z,17.70
2022-09-10T08:01:12.054Z,17.80
2022-09-10T08:03:40.020Z,17.90
2022-09-10T08:06:09.346Z,17.90
2022-09-10T08:08:38.311Z,18.00
2022-09-10T08:11:09.826Z,18.00
2022-09-10T08:13:42.134Z,18.00
2022-09-10T08:16:10.132Z,18.10
2022-09-10T08:18:37.427Z,18.00
2022-09-10T08:21:06.051Z,18.10
2022-09-10T08:23:32.787Z,18.10
2022-09-10T08:26:00.072Z,18.10
2022-09-10T08:28:27.363Z,18.00
2022-09-10T08:31:07.525Z,18.00
2022-09-10T08:33:35.953Z,18.10
2022-09-10T08:36:04.735Z,18.20
2022-09-10T08:38:36.856Z,18.20
2022-09-10T08:41:28.282Z,18.20
2022-09-10T08:44:04.222Z,18.30
2022-09-10T08:46:40.703Z,18.40
2022-09-10T08:49:36.280Z,18.20
2022-09-10T08:52:17.489Z,18.10
2022-09-10T08:54:53.649Z,18.10
2022-09-10T08:57:41.835Z,18.20
2022-09-10T09:00:14.664Z,18.10
2022-09-10T09:03:05.960Z,18.20
2022-09-10T09:05:57.977Z,18.10
2022-09-10T09:08:28.289Z,18.10
2022-09-10T09:11:02.309Z,18.00
2022-09-10T09:13:35.117Z,18.00
2022-09-10T09:16:20.609Z,18.00
2022-09-10T09:19:25.193Z,17.90
2022-09-10T09:21:55.583Z,17.90
2022-09-10T09:24:28.299Z,18.00
2022-09-10T09:27:03.671Z,18.10
2022-09-10T09:29:56.294Z,18.20
2022-09-10T09:32:24.705Z,17.90
2022-09-10T09:35:02.436Z,17.90
2022-09-10T09:37:31.277Z,17.90
2022-09-10T09:40:21.091Z,17.90
2022-09-10T09:43:05.119Z,18.10
2022-09-10T09:45:37.545Z,18.20
2022-09-10T09:48:10.135Z,18.30
2022-09-10T09:50:41.631Z,18.30
2022-09-10T09:53:13.705Z,18.10
2022-09-10T09:55:44.378Z,18.20
2022-09-10T09:58:28.922Z,18.50
2022-09-10T10:01:04.834Z,18.70
2022-09-10T10:03:33.730Z,18.70
2022-09-10T10:06:08.872Z,18.80
2022-09-10T10:08:44.120Z,18.80
2022-09-10T10:11:15.935Z,18.60
2022-09-10T10:13:45.127Z,18.60
2022-09-10T10:16:21.242Z,18.80
2022-09-10T10:18:48.515Z,18.70
2022-09-10T10:21:36.779Z,18.70
2022-09-10T10:24:04.093Z,18.80
2022-09-10T10:26:34.828Z,18.70
2022-09-10T10:29:18.513Z,18.70
2022-09-10T10:31:50.406Z,18.70
2022-09-10T10:34:23.495Z,18.60
2022-09-10T10:37:06.741Z,18.60
2022-09-10T10:40:01.376Z,18.80
2022-09-10T10:42:42.783Z,18.60
2022-09-10T10:45:27.542Z,18.70
2022-09-10T10:48:18.464Z,18.70
2022-09-10T10:50:58.606Z,19.00
2022-09-10T10:53:36.875Z,19.00
2022-09-10T10:56:08.818Z,19.20
2022-09-10T10:59:04.495Z,19.20
2022-09-10T11:01:37.337Z,19.20
2022-09-10T11:04:24.950Z,19.50
2022-09-10T11:07:14.507Z,19.70
2022-09-10T11:10:20.754Z,19.50
2022-09-10T11:12:53.664Z,19.60
2022-09-10T11:15:29.410Z,19.80
2022-09-10T11:18:07.578Z,19.50
2022-09-10T11:20:42.570Z,19.40
2022-09-10T11:23:31.234Z,19.40
2022-09-10T11:26:07.617Z,19.50
2022-09-10T11:28:43.721Z,19.60
2022-09-10T11:31:17.439Z,19.80
2022-09-10T11:34:07.175Z,19.80
2022-09-10T11:36:54.832Z,19.80
2022-09-10T11:39:38.380Z,20.00
2022-09-10T11:42:40.610Z,20.30
2022-09-10T11:45:36.295Z,20.20
2022-09-10T11:48:12.726Z,20.10
2022-09-10T11:50:48.789Z,19.90
2022-09-10T11:53:18.812Z,19.70
2022-09-10T11:56:23.128Z,19.80
2022-09-10T11:59:08.633Z,19.90
2022-09-10T12:01:49.096Z,19.90
2022-09-10T12:04:40.067Z,19.90
2022-09-10T12:07:30.260Z,20.00
2022-09-10T12:10:28.932Z,19.80
2022-09-10T12:12:55.589Z,19.70
2022-09-10T12:15:25.163Z,19.70
2022-09-10T12:18:12.399Z,19.60
2022-09-10T12:20:49.816Z,19.50
2022-09-10T12:23:32.976Z,19.30
2022-09-10T12:26:11.051Z,19.50
2022-09-10T12:28:49.692Z,19.80
2022-09-10T12:31:21.618Z,19.90
2022-09-10T12:33:48.354Z,19.90
2022-09-10T12:36:35.052Z,20.20
2022-09-10T12:39:25.687Z,19.90
2022-09-10T12:41:53.141Z,19.70
2022-09-10T12:44:35.040Z,19.80
2022-09-10T12:47:16.757Z,19.70
2022-09-10T12:49:57.166Z,19.90
2022-09-10T12:52:31.543Z,20.00
2022-09-10T12:55:33.875Z,20.30
2022-09-10T12:58:18.158Z,20.00
2022-09-10T13:00:53.854Z,20.00
2022-09-10T13:03:22.962Z,19.80
2022-09-10T13:05:54.177Z,19.90
2022-09-10T13:08:41.968Z,20.00
2022-09-10T13:11:22.303Z,20.10
2022-09-10T13:13:48.908Z,20.20
2022-09-10T13:16:20.342Z,20.50
2022-09-10T13:18:48.328Z,20.60
2022-09-10T13:21:23.999Z,20.60
2022-09-10T13:23:54.865Z,20.50
2022-09-10T13:26:38.345Z,20.30
2022-09-10T13:29:25.674Z,20.30
2022-09-10T13:32:08.263Z,20.20
2022-09-10T13:35:05.655Z,20.30
2022-09-10T13:37:47.742Z,19.90
2022-09-10T13:40:33.196Z,20.20
2022-09-10T13:43:25.161Z,20.30
2022-09-10T13:46:06.627Z,20.00
2022-09-10T13:48:49.482Z,20.30
2022-09-10T13:51:37.394Z,20.50
2022-09-10T13:54:17.172Z,20.60
2022-09-10T13:56:46.149Z,20.70
2022-09-10T13:59:23.582Z,20.80
2022-09-10T14:01:51.949Z,20.80
2022-09-10T14:04:27.939Z,20.60
2022-09-10T14:07:02.768Z,20.60
2022-09-10T14:09:30.318Z,20.70
2022-09-10T14:12:00.041Z,20.60
2022-09-10T14:14:34.843Z,20.40
2022-09-10T14:17:09.335Z,20.40
2022-09-10T14:19:59.229Z,20.30
2022-09-10T14:22:26.917Z,20.50
2022-09-10T14:24:58.311Z,20.60
2022-09-10T14:27:28.397Z,20.60
2022-09-10T14:29:56.880Z,20.80
2022-09-10T14:32:36.242Z,20.80
2022-09-10T14:35:42.917Z,20.80
2022-09-10T14:38:30.548Z,20.90
2022-09-10T14:41:17.494Z,20.80
2022-09-10T14:43:44.434Z,21.00
2022-09-10T14:46:34.903Z,20.90
2022-09-10T14:49:08.928Z,21.00
2022-09-10T14:51:35.748Z,21.00
2022-09-10T14:54:02.955Z,20.90
2022-09-10T14:56:37.964Z,20.90
2022-09-10T14:59:15.508Z,20.90
2022-09-10T15:01:44.730Z,21.00
2022-09-10T15:04:23.738Z,21.10
2022-09-10T15:06:54.727Z,21.00
2022-09-10T15:09:21.992Z,21.00
2022-09-10T15:11:48.964Z,21.00
2022-09-10T15:14:16.868Z,21.10
2022-09-10T15:16:44.141Z,21.00
2022-09-10T15:19:11.885Z,20.90
2022-09-10T15:21:39.465Z,20.90
2022-09-10T15:24:06.653Z,21.00
2022-09-10T15:26:33.981Z,21.10
2022-09-10T15:29:00.690Z,21.00
2022-09-10T15:31:32.015Z,21.00
2022-09-10T15:33:59.809Z,20.90
2022-09-10T15:36:28.345Z,21.00
2022-09-10T15:38:55.816Z,21.10
2022-09-10T15:41:22.491Z,20.90
2022-09-10T15:43:49.266Z,21.10
2022-09-10T15:46:17.135Z,20.80
2022-09-10T15:48:45.082Z,20.50
2022-09-10T15:51:23.067Z,20.60
2022-09-10T15:53:52.414Z,20.90
2022-09-10T15:56:21.095Z,20.70
2022-09-10T15:58:55.117Z,20.40
2022-09-10T16:01:24.981Z,20.60
2022-09-10T16:03:57.590Z,20.40
2022-09-10T16:06:27.691Z,20.60
2022-09-10T16:09:01.821Z,20.50
2022-09-10T16:11:33.692Z,20.60
2022-09-10T16:14:06.837Z,20.60
2022-09-10T16:16:34.964Z,20.40
2022-09-10T16:19:01.758Z,20.40
2022-09-10T16:21:36.231Z,20.30
2022-09-10T16:24:04.838Z,20.30
2022-09-10T16:26:37.203Z,20.40
2022-09-10T16:29:13.184Z,20.30
2022-09-10T16:31:40.058Z,20.50
2022-09-10T16:34:09.982Z,20.40
2022-09-10T16:36:37.956Z,20.60
2022-09-10T16:39:11.918Z,20.50
2022-09-10T16:41:44.925Z,20.40
2022-09-10T16:44:14.682Z,20.50
2022-09-10T16:46:42.327Z,20.40
2022-09-10T16:49:13.927Z,20.20
2022-09-10T16:51:42.850Z,20.10
2022-09-10T16:54:10.498Z,20.10
2022-09-10T16:56:40.947Z,20.10
2022-09-10T16:59:09.887Z,20.00
2022-09-10T17:01:37.261Z,20.10
2022-09-10T17:04:06.758Z,19.90
2022-09-10T17:06:34.850Z,20.00
2022-09-10T17:09:02.389Z,20.00
2022-09-10T17:11:31.460Z,20.00
2022-09-10T17:14:01.236Z,20.20
2022-09-10T17:16:41.884Z,20.20
2022-09-10T17:19:18.408Z,20.30
2022-09-10T17:21:53.090Z,20.10
2022-09-10T17:24:24.651Z,19.90
2022-09-10T17:26:52.491Z,20.00
2022-09-10T17:29:22.282Z,19.80
2022-09-10T17:31:50.497Z,20.20
2022-09-10T17:34:17.915Z,20.00
2022-09-10T17:36:47.087Z,19.60
2022-09-10T17:39:14.921Z,20.00
2022-09-10T17:41:43.135Z,19.70
2022-09-10T17:44:11.415Z,19.70
2022-09-10T17:46:38.505Z,19.40
2022-09-10T17:49:05.438Z,19.60
2022-09-10T17:51:34.159Z,19.80
2022-09-10T17:54:02.903Z,19.90
2022-09-10T17:56:29.687Z,19.90
2022-09-10T17:58:59.214Z,19.90
2022-09-10T18:01:38.926Z,19.80
2022-09-10T18:04:07.530Z,19.60
2022-09-10T18:06:37.711Z,19.50
2022-09-10T18:09:05.431Z,19.70
2022-09-10T18:11:36.935Z,19.70
2022-09-10T18:14:04.340Z,19.60
2022-09-10T18:16:32.994Z,19.60
2022-09-10T18:19:13.038Z,19.60
2022-09-10T18:21:40.832Z,19.60
2022-09-10T18:24:11.256Z,19.60
2022-09-10T18:26:40.021Z,19.60
2022-09-10T18:29:13.796Z,19.70
2022-09-10T18:31:45.918Z,19.40
2022-09-10T18:34:17.569Z,19.60
2022-09-10T18:36:47.792Z,19.80
2022-09-10T18:39:15.217Z,20.10
2022-09-10T18:41:42.765Z,20.10
2022-09-10T18:44:21.934Z,20.10
2022-09-10T18:46:50.455Z,20.20
2022-09-10T18:49:21.390Z,20.10
2022-09-10T18:51:52.217Z,20.00
2022-09-10T18:54:20.630Z,20.10
2022-09-10T18:56:48.678Z,20.10
2022-09-10T18:59:20.182Z,20.20
2022-09-10T19:01:48.264Z,20.10
2022-09-10T19:04:17.879Z,20.20
2022-09-10T19:06:46.920Z,20.20
2022-09-10T19:09:22.540Z,20.00
2022-09-10T19:11:51.364Z,19.70
2022-09-10T19:14:21.258Z,19.80
2022-09-10T19:16:50.689Z,19.80
2022-09-10T19:19:20.200Z,19.70
2022-09-10T19:21:49.394Z,19.90
2022-09-10T19:24:17.460Z,20.00
2022-09-10T19:26:45.490Z,19.90
2022-09-10T19:29:17.156Z,20.00
2022-09-10T19:31:48.441Z,20.00
2022-09-10T19:34:19.340Z,19.90
2022-09-10T19:36:47.100Z,20.00
2022-09-10T19:39:17.012Z,20.00
2022-09-10T19:41:45.341Z,20.00
2022-09-10T19:44:14.032Z,19.90
2022-09-10T19:46:41.405Z,19.80
2022-09-10T19:49:10.148Z,19.80
2022-09-10T19:51:37.930Z,19.60
2022-09-10T19:54:06.616Z,19.70
2022-09-10T19:56:37.131Z,19.50
2022-09-10T19:59:08.541Z,19.50
2022-09-10T20:01:37.786Z,19.60
2022-09-10T20:04:06.730Z,19.80
2022-09-10T20:06:34.873Z,19.90
2022-09-10T20:09:02.771Z,20.10
2022-09-10T20:11:32.353Z,20.20
2022-09-10T20:14:07.951Z,20.00
2022-09-10T20:16:39.882Z,19.90
2022-09-10T20:19:07.403Z,19.70
2022-09-10T20:21:35.369Z,19.60
2022-09-10T20:24:02.675Z,19.60
2022-09-10T20:26:32.037Z,19.70
2022-09-10T20:29:02.048Z,19.70
2022-09-10T20:31:32.009Z,19.60
2022-09-10T20:34:00.613Z,19.60
2022-09-10T20:36:28.578Z,19.30
2022-09-10T20:38:56.090Z,19.50
2022-09-10T20:41:23.976Z,19.40
2022-09-10T20:43:51.802Z,19.40
2022-09-10T20:46:22.189Z,19.50
2022-09-10T20:48:50.301Z,19.50
2022-09-10T20:51:18.511Z,20.20
2022-09-10T20:53:45.415Z,20.80
2022-09-10T20:56:14.972Z,20.90
2022-09-10T20:58:42.044Z,20.80
2022-09-10T21:01:10.371Z,20.90
2022-09-10T21:03:39.108Z,20.90
2022-09-10T21:06:06.108Z,20.30
2022-09-10T21:08:32.913Z,19.90
2022-09-10T21:11:08.302Z,19.90
2022-09-10T21:13:36.390Z,19.80
2022-09-10T21:16:15.664Z,19.90
2022-09-10T21:18:48.773Z,19.80
2022-09-10T21:21:20.856Z,19.80
2022-09-10T21:23:49.960Z,19.80
2022-09-10T21:26:21.424Z,19.80
2022-09-10T21:28:49.663Z,19.80
2022-09-10T21:31:17.121Z,19.90
2022-09-10T21:33:44.077Z,19.90
2022-09-10T21:36:15.930Z,19.90
2022-09-10T21:38:53.852Z,19.80
2022-09-10T21:41:42.567Z,19.70
2022-09-10T21:44:14.184Z,19.70
2022-09-10T21:46:42.788Z,19.70
2022-09-10T21:49:09.582Z,19.70
2022-09-10T21:51:37.760Z,19.80
2022-09-10T21:54:04.853Z,19.80
2022-09-10T21:56:31.991Z,19.80
2022-09-10T21:59:01.087Z,19.90
2022-09-10T22:01:30.739Z,19.80
2022-09-10T22:04:00.447Z,19.70
2022-09-10T22:06:30.481Z,19.60
2022-09-10T22:09:03.911Z,19.40
2022-09-10T22:11:33.267Z,19.40
2022-09-10T22:14:05.355Z,19.40
2022-09-10T22:16:33.450Z,19.40
2022-09-10T22:19:02.419Z,19.60
2022-09-10T22:21:29.880Z,19.60
2022-09-10T22:23:56.928Z,19.50
2022-09-10T22:26:28.082Z,19.50
2022-09-10T22:28:57.063Z,19.50
2022-09-10T22:31:26.077Z,19.50
2022-09-10T22:33:55.272Z,19.40
2022-09-10T22:36:28.845Z,19.40
2022-09-10T22:38:59.269Z,19.40
2022-09-10T22:41:27.193Z,19.40
2022-09-10T22:43:54.406Z,19.30
2022-09-10T22:46:21.528Z,19.40
2022-09-10T22:48:48.273Z,19.40
2022-09-10T22:51:17.955Z,19.40
2022-09-10T22:53:45.996Z,19.40
2022-09-10T22:56:14.324Z,19.40
2022-09-10T22:58:41.381Z,19.40
2022-09-10T23:01:13.667Z,19.30
2022-09-10T23:03:41.616Z,19.20
2022-09-10T23:06:21.205Z,19.20
2022-09-10T23:08:50.398Z,19.20
2022-09-10T23:11:22.662Z,19.20
2022-09-10T23:13:55.036Z,19.20
2022-09-10T23:16:28.915Z,19.20
2022-09-10T23:18:57.709Z,19.10
2022-09-10T23:21:26.967Z,19.20
2022-09-10T23:23:56.058Z,19.10
2022-09-10T23:26:23.601Z,19.10
2022-09-10T23:28:50.575Z,19.10
2022-09-10T23:31:20.548Z,19.20
2022-09-10T23:33:52.996Z,19.20
2022-09-10T23:36:19.816Z,19.20
2022-09-10T23:38:47.302Z,19.10
2022-09-10T23:41:15.954Z,19.10
2022-09-10T23:43:43.713Z,19.00
2022-09-10T23:46:11.421Z,19.00
2022-09-10T23:48:38.469Z,19.00
2022-09-10T23:51:06.403Z,19.00
2022-09-10T23:53:33.605Z,19.00
2022-09-10T23:56:02.747Z,18.90
2022-09-10T23:58:29.761Z,18.90
